Time;durP1;ratioP1;P1;durP2;ratioP2;P2;SDS_P1;SDS_P2;PMS_P1;PMS_P2;Temp;Humidity;BMP_temperature;BMP_pressure;BME280_temperature;BME280_humidity;BME280_pressure;Samples;Min_cycle;Max_cycle;Signal;HPM_P1;HPM_P2
2023/01/30 00:01:34;;;;;;;23.27;14.30;;;6.30;67.80;;;;;;6215021;23;20012;-83
2023/01/30 00:04:00;;;;;;;23.17;14.30;;;6.30;67.80;;;;;;6217029;23;20001;-86
2023/01/30 00:06:25;;;;;;;24.63;14.20;;;6.40;68.00;;;;;;6220514;23;20043;-85
2023/01/30 00:08:51;;;;;;;20.98;14.05;;;6.40;67.70;;;;;;6073286;23;20087;-85
2023/01/30 00:11:19;;;;;;;20.13;13.65;;;6.40;67.70;;;;;;6217887;23;20021;-85
2023/01/30 00:13:47;;;;;;;22.38;14.20;;;6.30;67.60;;;;;;6217538;23;20007;-85
2023/01/30 00:16:13;;;;;;;21.17;14.07;;;6.30;67.80;;;;;;6217732;23;20366;-86
2023/01/30 00:18:40;;;;;;;23.20;14.55;;;6.30;68.30;;;;;;6218053;23;20003;-86
2023/01/30 00:21:07;;;;;;;24.92;13.95;;;6.30;68.40;;;;;;6216525;23;20107;-87
2023/01/30 00:23:34;;;;;;;19.63;13.63;;;6.40;69.20;;;;;;6217200;23;20080;-85
2023/01/30 00:26:00;;;;;;;20.33;14.02;;;6.40;68.70;;;;;;6191606;23;20043;-85
2023/01/30 00:28:25;;;;;;;20.77;13.25;;;6.30;68.30;;;;;;6217255;23;20323;-86
2023/01/30 00:30:52;;;;;;;21.15;13.77;;;6.20;68.20;;;;;;6218025;23;20007;-83
2023/01/30 00:33:19;;;;;;;21.38;14.13;;;6.20;68.20;;;;;;6220499;23;20050;-85
2023/01/30 00:35:47;;;;;;;21.85;13.50;;;6.10;68.40;;;;;;6224499;23;20032;-83
2023/01/30 00:38:13;;;;;;;21.23;13.02;;;6.00;68.20;;;;;;6219433;23;20449;-82
2023/01/30 00:40:38;;;;;;;19.95;13.43;;;6.00;68.90;;;;;;6192286;23;20001;-82
2023/01/30 00:48:35;;;;;;;20.90;13.13;;;5.90;69.20;;;;;;6218756;23;20066;-84
2023/01/30 00:51:01;;;;;;;18.48;12.90;;;5.80;69.70;;;;;;6218686;23;20008;-84
2023/01/30 00:53:27;;;;;;;19.45;12.63;;;5.80;69.40;;;;;;6219990;23;20342;-84
2023/01/30 00:55:53;;;;;;;21.58;13.32;;;5.80;69.50;;;;;;6194116;23;20039;-84
2023/01/30 00:58:20;;;;;;;17.98;12.25;;;5.80;69.00;;;;;;6227151;23;20080;-84
2023/01/30 01:00:46;;;;;;;17.02;12.70;;;5.80;69.90;;;;;;6235457;23;20001;-84
2023/01/30 01:03:12;;;;;;;19.27;12.43;;;5.70;69.70;;;;;;6221897;23;20447;-85
2023/01/30 01:05:37;;;;;;;17.83;11.98;;;5.70;69.00;;;;;;6220892;23;20023;-84
2023/01/30 01:08:03;;;;;;;20.13;12.07;;;5.60;69.40;;;;;;6219646;23;20000;-83
2023/01/30 01:10:30;;;;;;;19.23;12.15;;;5.70;70.00;;;;;;6219535;23;20001;-83
2023/01/30 01:12:55;;;;;;;17.33;10.90;;;5.60;69.50;;;;;;6219873;23;20008;-83
2023/01/30 01:15:23;;;;;;;16.75;11.35;;;5.60;69.40;;;;;;6229830;23;20008;-82
2023/01/30 01:17:49;;;;;;;19.20;11.82;;;5.60;70.30;;;;;;6233407;23;20047;-84
2023/01/30 01:20:16;;;;;;;17.92;11.82;;;5.60;69.80;;;;;;6226654;23;20007;-84
2023/01/30 01:22:41;;;;;;;17.70;11.70;;;5.60;70.20;;;;;;6218884;23;20000;-84
2023/01/30 01:25:09;;;;;;;18.38;12.32;;;5.50;70.50;;;;;;6220035;23;20019;-86
2023/01/30 01:27:35;;;;;;;18.40;11.63;;;5.50;70.70;;;;;;6218711;23;20037;-84
2023/01/30 01:30:01;;;;;;;15.77;11.18;;;5.50;70.00;;;;;;6190879;23;20039;-84
2023/01/30 01:32:27;;;;;;;19.38;12.15;;;5.50;70.30;;;;;;6216871;23;20008;-85
2023/01/30 01:34:52;;;;;;;17.48;11.23;;;5.50;70.20;;;;;;6217554;23;20016;-84
2023/01/30 01:37:18;;;;;;;18.45;11.65;;;5.50;70.10;;;;;;6216976;23;20000;-84
2023/01/30 01:42:36;;;;;;;16.27;10.93;;;5.30;71.40;;;;;;6216903;23;20019;-84
2023/01/30 01:45:08;;;;;;;19.85;11.30;;;5.20;70.90;;;;;;6217451;23;20109;-84
2023/01/30 01:47:34;;;;;;;18.45;11.45;;;5.20;72.30;;;;;;6217559;23;20007;-84
2023/01/30 01:50:01;;;;;;;20.30;11.05;;;5.20;71.70;;;;;;6217666;23;20016;-85
2023/01/30 01:52:27;;;;;;;20.10;10.85;;;5.20;72.00;;;;;;6218566;23;20178;-83
2023/01/30 02:40:49;;;;;;;16.73;11.02;;;4.90;72.90;;;;;;6240901;23;20406;-84
2023/01/30 02:43:57;;;;;;;20.10;12.85;;;5.00;72.90;;;;;;6246438;22;20414;-84
2023/01/30 02:46:38;;;;;;;24.67;13.27;;;4.90;72.30;;;;;;6253750;22;19997;-85
2023/01/30 02:49:22;;;;;;;18.13;10.88;;;4.90;73.20;;;;;;6262849;22;20011;-83
2023/01/30 02:51:49;;;;;;;17.30;11.00;;;4.90;72.80;;;;;;6261292;23;20020;-83
2023/01/30 02:54:15;;;;;;;23.00;14.27;;;4.90;71.90;;;;;;6259114;22;20002;-84
2023/01/30 02:56:45;;;;;;;16.08;10.38;;;5.00;72.30;;;;;;6271124;22;19989;-83
2023/01/30 02:59:13;;;;;;;21.30;13.13;;;4.90;72.20;;;;;;6270319;22;19997;-84
2023/01/30 03:02:16;;;;;;;19.10;11.50;;;4.90;72.30;;;;;;6269275;22;20011;-81
2023/01/30 03:04:57;;;;;;;17.88;11.45;;;4.90;73.10;;;;;;6265761;23;20008;-84
2023/01/30 03:07:41;;;;;;;22.67;14.38;;;4.80;72.80;;;;;;6257855;22;20000;-83
2023/01/30 03:10:17;;;;;;;;;;;4.70;72.80;;;;;;6266706;22;20011;-83
2023/01/30 03:13:08;;;;;;;17.25;11.13;;;4.80;74.20;;;;;;6254031;22;19907;-84
2023/01/30 03:15:46;;;;;;;27.52;13.05;;;4.90;73.60;;;;;;6248963;22;20099;-84
2023/01/30 03:18:13;;;;;;;16.10;10.65;;;4.90;72.50;;;;;;6222194;23;20420;-84
2023/01/30 03:20:40;;;;;;;20.67;13.75;;;4.90;72.40;;;;;;6248230;22;20000;-84
2023/01/30 03:23:06;;;;;;;17.65;10.75;;;4.80;72.20;;;;;;6248072;22;20276;-84
2023/01/30 03:25:35;;;;;;;20.30;13.15;;;4.80;72.50;;;;;;6246172;22;19996;-84
2023/01/30 03:28:02;;;;;;;16.42;11.13;;;4.80;72.50;;;;;;6246633;23;20386;-85
2023/01/30 03:30:28;;;;;;;17.98;11.15;;;4.80;72.60;;;;;;6246930;22;20001;-85
2023/01/30 03:32:54;;;;;;;19.00;11.50;;;4.80;72.70;;;;;;6247072;22;20040;-82
2023/01/30 03:35:20;;;;;;;19.45;11.38;;;4.80;72.80;;;;;;6248404;22;20011;-84
2023/01/30 03:37:46;;;;;;;18.50;11.73;;;4.70;72.50;;;;;;6247796;22;20484;-84
2023/01/30 03:40:13;;;;;;;19.52;13.27;;;4.70;72.90;;;;;;6231804;23;19992;-84
2023/01/30 03:42:39;;;;;;;16.25;11.00;;;4.70;73.00;;;;;;6252589;22;20012;-83
2023/01/30 03:45:05;;;;;;;16.35;10.57;;;4.70;73.90;;;;;;6258148;22;20366;-83
2023/01/30 03:47:31;;;;;;;20.20;12.88;;;4.80;73.60;;;;;;6255422;23;20027;-83
2023/01/30 03:49:57;;;;;;;17.30;11.30;;;4.80;73.00;;;;;;6253558;22;20023;-84
2023/01/30 03:52:22;;;;;;;23.63;14.13;;;4.60;72.70;;;;;;6265334;22;20008;-85
2023/01/30 03:54:48;;;;;;;18.67;11.65;;;4.60;72.90;;;;;;6246008;22;20007;-84
2023/01/30 03:57:14;;;;;;;22.45;14.40;;;4.50;73.10;;;;;;6245577;22;20027;-84
2023/01/30 03:59:39;;;;;;;19.27;12.10;;;4.60;73.00;;;;;;6246512;22;19996;-84
2023/01/30 04:02:05;;;;;;;22.95;14.40;;;4.60;72.80;;;;;;6222904;23;20066;-83
2023/01/30 04:04:31;;;;;;;22.77;14.30;;;4.70;73.40;;;;;;6245563;22;20046;-84
2023/01/30 04:06:56;;;;;;;16.35;11.45;;;4.70;73.00;;;;;;6244633;22;20004;-84
2023/01/30 04:09:22;;;;;;;25.60;14.90;;;4.60;73.10;;;;;;6245365;22;20031;-84
2023/01/30 04:11:48;;;;;;;17.60;12.05;;;4.60;73.40;;;;;;6245440;22;20008;-84
2023/01/30 04:14:13;;;;;;;23.48;14.38;;;4.60;73.20;;;;;;6246043;22;20024;-84
2023/01/30 04:16:39;;;;;;;20.85;12.48;;;4.60;73.20;;;;;;6246285;22;20065;-82
2023/01/30 04:19:05;;;;;;;22.27;13.93;;;4.50;73.30;;;;;;6246510;22;20001;-84
2023/01/30 04:21:31;;;;;;;18.00;11.77;;;4.40;73.50;;;;;;6229409;23;20034;-84
2023/01/30 04:23:57;;;;;;;23.75;14.68;;;4.40;73.40;;;;;;6259435;22;20012;-82
2023/01/30 04:26:22;;;;;;;18.00;12.57;;;4.30;73.50;;;;;;6227198;23;20008;-83
2023/01/30 04:28:48;;;;;;;21.65;14.25;;;4.40;74.20;;;;;;6250036;22;20000;-84
2023/01/30 04:31:14;;;;;;;19.60;12.57;;;4.40;73.80;;;;;;6247114;22;20004;-80
2023/01/30 04:33:40;;;;;;;18.95;12.73;;;4.50;74.20;;;;;;6253082;22;20457;-84
2023/01/30 04:36:08;;;;;;;21.70;14.10;;;4.40;73.60;;;;;;6252822;22;20020;-84
2023/01/30 04:38:34;;;;;;;20.67;12.05;;;4.40;74.00;;;;;;6245685;22;20087;-84
2023/01/30 04:41:01;;;;;;;23.60;15.27;;;4.40;73.70;;;;;;6217766;22;20004;-83
2023/01/30 04:43:27;;;;;;;19.13;11.63;;;4.40;73.70;;;;;;6245365;22;20027;-83
2023/01/30 04:45:53;;;;;;;22.42;14.75;;;4.40;73.90;;;;;;6245012;22;20004;-84
2023/01/30 04:48:22;;;;;;;18.88;12.18;;;4.40;74.00;;;;;;6245089;22;20006;-85
2023/01/30 04:50:50;;;;;;;22.92;14.38;;;4.40;73.80;;;;;;6246671;22;20046;-85
2023/01/30 04:53:17;;;;;;;19.45;13.25;;;4.30;73.80;;;;;;6245752;22;20008;-82
2023/01/30 04:55:43;;;;;;;23.05;14.52;;;4.30;74.20;;;;;;6246146;23;20004;-83
2023/01/30 04:58:08;;;;;;;19.65;12.82;;;4.20;74.00;;;;;;6245505;22;20004;-84
2023/01/30 05:00:34;;;;;;;23.10;14.07;;;4.20;74.20;;;;;;6244997;22;20422;-84
2023/01/30 05:03:00;;;;;;;23.73;12.10;;;4.10;74.30;;;;;;6245418;22;20000;-84
2023/01/30 05:05:27;;;;;;;23.95;14.98;;;4.10;74.40;;;;;;6252674;22;20001;-83
2023/01/30 05:07:53;;;;;;;20.05;12.98;;;4.20;74.40;;;;;;6228357;22;20027;-83
2023/01/30 05:10:19;;;;;;;23.63;14.93;;;4.20;74.90;;;;;;6246497;22;20004;-83
2023/01/30 05:12:45;;;;;;;20.05;12.43;;;4.20;74.80;;;;;;6218489;22;20103;-85
2023/01/30 05:15:12;;;;;;;22.35;14.93;;;4.20;74.40;;;;;;6251869;22;20003;-84
2023/01/30 05:17:38;;;;;;;24.25;16.00;;;4.10;75.10;;;;;;6251044;22;20007;-83
2023/01/30 05:20:05;;;;;;;18.95;12.73;;;4.10;74.50;;;;;;6227009;22;20008;-84
2023/01/30 05:22:31;;;;;;;25.10;14.45;;;4.10;74.70;;;;;;6247235;22;20046;-84
2023/01/30 05:24:57;;;;;;;23.77;14.98;;;4.10;74.60;;;;;;6247278;23;20008;-84
2023/01/30 05:27:23;;;;;;;19.92;12.77;;;4.10;74.60;;;;;;6249802;22;20331;-85
2023/01/30 05:29:48;;;;;;;24.90;14.85;;;4.10;74.60;;;;;;6249191;22;19993;-84
2023/01/30 05:32:16;;;;;;;19.05;12.68;;;4.10;74.50;;;;;;6248644;23;20050;-84
2023/01/30 05:34:41;;;;;;;22.60;14.20;;;4.20;74.70;;;;;;6248477;22;19996;-82
2023/01/30 05:37:08;;;;;;;22.33;14.82;;;4.30;74.40;;;;;;6248249;22;20008;-83
2023/01/30 05:39:33;;;;;;;23.23;13.05;;;4.30;74.90;;;;;;6248867;22;19996;-83
2023/01/30 05:41:59;;;;;;;24.67;16.33;;;4.30;74.80;;;;;;6248608;22;20074;-83
2023/01/30 05:44:25;;;;;;;18.23;11.32;;;4.20;74.60;;;;;;6248423;22;20000;-84
2023/01/30 05:46:50;;;;;;;25.23;14.27;;;4.10;74.70;;;;;;6247495;23;20004;-85
2023/01/30 05:49:16;;;;;;;17.60;11.48;;;4.10;74.80;;;;;;6248884;22;20000;-84
2023/01/30 05:51:42;;;;;;;24.65;14.80;;;4.00;74.80;;;;;;6251272;22;20033;-83
2023/01/30 05:54:08;;;;;;;23.10;14.13;;;4.00;74.90;;;;;;6252864;22;20012;-84
2023/01/30 05:56:33;;;;;;;21.48;14.35;;;4.00;74.90;;;;;;6254145;22;19996;-83
2023/01/30 05:59:00;;;;;;;22.10;13.52;;;4.00;74.70;;;;;;6256272;22;20001;-83
2023/01/30 06:01:27;;;;;;;23.27;14.10;;;4.00;75.20;;;;;;6223477;23;20008;-84
2023/01/30 06:03:53;;;;;;;19.58;12.57;;;4.00;74.70;;;;;;6250509;22;20000;-84
2023/01/30 06:06:20;;;;;;;22.00;13.23;;;4.00;74.50;;;;;;6249586;22;20004;-84
2023/01/30 06:08:46;;;;;;;23.42;15.02;;;4.00;74.90;;;;;;6247832;22;20054;-84
2023/01/30 06:11:14;;;;;;;25.85;14.15;;;4.00;75.30;;;;;;6246842;22;20032;-83
2023/01/30 06:13:40;;;;;;;23.52;14.27;;;3.90;74.90;;;;;;6247644;22;20311;-83
2023/01/30 06:16:08;;;;;;;22.23;15.27;;;3.80;75.00;;;;;;6248141;22;20054;-83
2023/01/30 06:18:35;;;;;;;27.33;14.60;;;3.80;74.90;;;;;;6247493;22;20012;-80
2023/01/30 06:21:00;;;;;;;18.88;12.13;;;3.90;74.90;;;;;;6250477;22;20077;-83
2023/01/30 06:23:27;;;;;;;22.67;15.05;;;3.90;74.80;;;;;;6246717;22;20000;-81
2023/01/30 06:25:53;;;;;;;22.83;14.68;;;3.90;74.70;;;;;;6245228;22;20023;-78
2023/01/30 06:28:19;;;;;;;24.10;15.18;;;3.90;74.80;;;;;;6244843;22;20414;-77
2023/01/30 06:30:45;;;;;;;20.73;13.82;;;4.00;74.80;;;;;;6245132;22;20307;-80
2023/01/30 06:33:11;;;;;;;22.45;15.13;;;4.00;75.00;;;;;;6248056;23;20012;-79
2023/01/30 06:35:37;;;;;;;23.25;14.60;;;4.10;75.20;;;;;;6248837;22;20051;-79
2023/01/30 06:38:03;;;;;;;23.00;14.77;;;4.10;75.10;;;;;;6245821;22;20067;-80
2023/01/30 06:40:29;;;;;;;23.58;15.50;;;4.10;74.60;;;;;;6245506;22;20430;-80
2023/01/30 06:42:55;;;;;;;23.50;15.82;;;4.00;74.90;;;;;;6244895;22;20087;-80
2023/01/30 06:45:20;;;;;;;22.88;15.40;;;4.00;74.80;;;;;;6244992;23;20429;-80
2023/01/30 06:47:51;;;;;;;27.27;16.05;;;4.20;76.10;;;;;;6245917;22;20067;-80
2023/01/30 06:50:18;;;;;;;29.65;15.50;;;4.30;75.80;;;;;;6245484;22;20031;-79
2023/01/30 06:52:46;;;;;;;21.15;12.63;;;4.40;76.40;;;;;;6244508;22;20460;-80
2023/01/30 06:55:14;;;;;;;25.25;15.65;;;4.50;75.70;;;;;;6244426;23;20004;-78
2023/01/30 06:57:41;;;;;;;21.60;12.98;;;4.40;75.10;;;;;;6245062;23;20027;-80
2023/01/30 07:00:13;;;;;;;24.55;15.43;;;4.50;75.10;;;;;;6219556;22;20004;-80
2023/01/30 07:02:38;;;;;;;26.25;14.90;;;4.50;75.40;;;;;;6246645;22;20000;-79
2023/01/30 07:05:06;;;;;;;18.55;11.77;;;4.70;75.00;;;;;;6245935;22;20001;-81
2023/01/30 07:07:32;;;;;;;26.70;15.20;;;4.70;74.50;;;;;;6245469;23;20004;-78
2023/01/30 07:09:59;;;;;;;19.95;11.27;;;4.80;74.40;;;;;;6239891;22;20027;-79
2023/01/30 07:12:25;;;;;;;22.65;14.10;;;4.90;74.20;;;;;;6244145;22;20008;-79
2023/01/30 07:14:52;;;;;;;18.55;11.68;;;4.90;74.00;;;;;;6244071;22;20001;-79
2023/01/30 07:17:18;;;;;;;19.40;11.27;;;4.90;73.70;;;;;;6243923;22;20004;-79
2023/01/30 07:19:45;;;;;;;22.40;11.80;;;5.00;74.00;;;;;;6243407;22;20070;-80
2023/01/30 07:22:11;;;;;;;30.60;16.02;;;5.00;74.30;;;;;;6244103;22;20000;-79
2023/01/30 07:24:38;;;;;;;24.42;13.20;;;5.20;74.30;;;;;;6243694;22;20057;-78
2023/01/30 07:27:06;;;;;;;23.30;13.13;;;5.20;74.00;;;;;;6217349;22;20409;-79
2023/01/30 07:29:34;;;;;;;25.85;13.60;;;5.30;74.20;;;;;;6218881;22;20324;-78
2023/01/30 07:32:01;;;;;;;25.98;12.80;;;5.40;74.20;;;;;;6245138;22;20083;-79
2023/01/30 07:34:26;;;;;;;23.92;12.10;;;5.40;74.10;;;;;;6244211;22;20000;-80
2023/01/30 07:36:52;;;;;;;20.90;11.50;;;5.40;72.90;;;;;;6244145;22;20382;-78
2023/01/30 07:39:18;;;;;;;21.67;12.00;;;5.40;72.70;;;;;;6244034;22;19996;-78
2023/01/30 07:41:43;;;;;;;20.83;12.13;;;5.40;72.80;;;;;;6243943;22;20016;-80
2023/01/30 07:44:09;;;;;;;18.52;12.30;;;5.40;72.90;;;;;;6245581;22;20094;-79
2023/01/30 07:46:35;;;;;;;23.05;12.00;;;5.50;72.20;;;;;;6245123;22;20035;-79
2023/01/30 07:49:02;;;;;;;22.80;12.30;;;5.40;72.30;;;;;;6243871;22;20023;-79
2023/01/30 07:51:28;;;;;;;19.90;11.73;;;5.40;72.30;;;;;;6241818;22;20095;-78
2023/01/30 07:53:53;;;;;;;21.90;12.52;;;5.40;72.40;;;;;;6244196;22;20494;-78
2023/01/30 07:56:22;;;;;;;23.13;12.65;;;5.50;72.50;;;;;;6243524;23;20007;-78
2023/01/30 07:58:50;;;;;;;27.75;12.65;;;5.60;72.20;;;;;;6218815;23;20287;-77
2023/01/30 08:01:16;;;;;;;26.00;12.45;;;5.70;72.20;;;;;;6245887;22;20481;-79
2023/01/30 08:03:44;;;;;;;19.17;12.38;;;5.70;72.00;;;;;;6244588;22;20000;-80
2023/01/30 08:06:11;;;;;;;23.58;14.20;;;5.70;71.60;;;;;;6244587;23;20329;-79
2023/01/30 08:08:37;;;;;;;22.02;12.60;;;5.70;71.30;;;;;;6244726;22;20008;-79
2023/01/30 08:11:02;;;;;;;22.25;12.60;;;5.70;71.70;;;;;;6244130;22;20338;-79
2023/01/30 08:13:28;;;;;;;18.02;12.20;;;5.60;71.70;;;;;;6244683;22;20008;-79
2023/01/30 08:15:54;;;;;;;22.70;13.20;;;5.60;71.20;;;;;;6218361;23;20496;-80
2023/01/30 08:18:19;;;;;;;20.83;12.30;;;5.50;71.80;;;;;;6248376;22;20027;-78
2023/01/30 08:20:45;;;;;;;19.45;12.30;;;5.50;71.70;;;;;;6254883;22;19996;-80
2023/01/30 08:23:11;;;;;;;20.60;12.45;;;5.40;71.70;;;;;;6246311;22;20001;-78
2023/01/30 08:25:37;;;;;;;22.83;13.02;;;5.40;71.90;;;;;;6244923;22;20090;-80
2023/01/30 08:28:03;;;;;;;22.98;12.13;;;5.30;72.20;;;;;;6217209;22;20290;-79
2023/01/30 08:30:30;;;;;;;22.10;12.00;;;5.40;71.80;;;;;;6243983;23;20001;-78
2023/01/30 08:32:57;;;;;;;21.40;12.38;;;5.40;72.50;;;;;;6243607;22;20442;-78
2023/01/30 08:35:22;;;;;;;23.42;13.68;;;5.50;71.90;;;;;;6244772;22;20015;-80
2023/01/30 08:37:48;;;;;;;18.90;12.52;;;5.50;71.80;;;;;;6245042;22;20012;-78
2023/01/30 08:40:14;;;;;;;24.77;12.80;;;5.60;71.80;;;;;;6244882;22;20031;-80
2023/01/30 08:42:44;;;;;;;37.55;14.70;;;5.70;71.50;;;;;;6217119;23;20098;-79
2023/01/30 08:45:10;;;;;;;39.47;12.98;;;5.80;71.50;;;;;;6244247;22;20331;-78
2023/01/30 08:47:35;;;;;;;30.30;13.80;;;5.90;71.50;;;;;;6244236;22;20011;-80
2023/01/30 08:50:02;;;;;;;23.95;12.48;;;6.00;70.60;;;;;;6244572;22;20067;-80
2023/01/30 08:52:27;;;;;;;20.15;11.95;;;6.00;70.60;;;;;;6245911;22;20016;-80
2023/01/30 08:54:53;;;;;;;26.40;13.00;;;5.90;70.30;;;;;;6246299;22;20058;-79
2023/01/30 08:57:19;;;;;;;23.60;12.38;;;6.00;70.80;;;;;;6246050;22;20426;-79
2023/01/30 08:59:44;;;;;;;19.73;13.50;;;6.00;70.20;;;;;;6219003;22;20004;-79
2023/01/30 09:02:11;;;;;;;24.10;13.40;;;6.00;70.50;;;;;;6246105;22;20341;-79
2023/01/30 09:04:37;;;;;;;28.05;13.50;;;6.10;70.10;;;;;;6246141;22;19996;-79
2023/01/30 09:07:03;;;;;;;22.88;12.57;;;6.10;70.00;;;;;;6245610;22;20086;-80
2023/01/30 09:09:29;;;;;;;19.42;12.65;;;6.10;69.60;;;;;;6245614;22;20000;-80
2023/01/30 09:11:55;;;;;;;23.77;12.85;;;6.20;69.80;;;;;;6245954;22;20503;-78
2023/01/30 09:14:21;;;;;;;20.67;12.93;;;6.30;69.50;;;;;;6245847;22;20383;-79
2023/01/30 09:16:54;;;;;;;25.77;14.20;;;6.40;69.50;;;;;;6245963;22;20264;-82
2023/01/30 09:19:21;;;;;;;21.30;13.77;;;6.50;69.40;;;;;;6246446;22;20472;-80
2023/01/30 09:21:48;;;;;;;20.27;12.55;;;6.50;68.80;;;;;;6251419;23;20086;-80
2023/01/30 09:24:14;;;;;;;21.83;13.15;;;6.50;68.00;;;;;;6246011;22;20000;-76
2023/01/30 09:26:43;;;;;;;20.45;12.88;;;6.40;67.90;;;;;;6218585;23;20043;-74
2023/01/30 09:29:13;;;;;;;19.15;11.75;;;6.40;68.40;;;;;;6246747;22;20067;-72
2023/01/30 09:31:39;;;;;;;23.20;12.20;;;6.50;70.20;;;;;;6245706;22;20011;-76
2023/01/30 09:34:05;;;;;;;19.65;12.90;;;6.60;67.80;;;;;;6219319;22;20000;-75
2023/01/30 09:36:30;;;;;;;18.95;12.25;;;6.70;67.30;;;;;;6246404;22;20008;-75
2023/01/30 09:38:56;;;;;;;20.80;12.77;;;6.70;67.50;;;;;;6245709;22;20453;-72
2023/01/30 09:41:50;;;;;;;23.88;12.95;;;6.80;67.60;;;;;;6245556;22;20012;-74
2023/01/30 09:44:31;;;;;;;17.33;12.23;;;7.00;69.40;;;;;;6218103;22;20008;-75
2023/01/30 09:47:13;;;;;;;18.88;12.07;;;7.10;69.00;;;;;;6245084;22;20430;-74
2023/01/30 09:50:10;;;;;;;19.40;12.00;;;7.10;68.90;;;;;;6245711;22;20401;-74
2023/01/30 09:52:50;;;;;;;20.42;12.57;;;7.10;66.80;;;;;;6245705;22;20011;-74
2023/01/30 09:55:20;;;;;;;19.10;12.68;;;7.20;67.00;;;;;;6245817;22;20068;-73
2023/01/30 09:57:47;;;;;;;17.70;12.52;;;7.20;66.30;;;;;;6218216;23;20457;-76
2023/01/30 10:00:13;;;;;;;19.20;11.88;;;7.30;66.60;;;;;;6244923;23;20052;-76
2023/01/30 10:03:03;;;;;;;28.13;12.02;;;7.30;67.00;;;;;;6245240;23;20001;-76
2023/01/30 10:05:54;;;;;;;20.83;12.07;;;7.30;68.60;;;;;;6245330;22;20001;-72
2023/01/30 10:08:27;;;;;;;18.77;12.27;;;7.40;68.10;;;;;;6244836;22;20011;-72
2023/01/30 10:10:53;;;;;;;20.80;11.95;;;7.50;66.10;;;;;;6245053;22;20008;-72
2023/01/30 10:13:34;;;;;;;20.67;12.38;;;7.50;65.80;;;;;;6244900;22;20104;-72
2023/01/30 10:16:34;;;;;;;23.50;12.07;;;7.60;67.70;;;;;;6245281;22;20330;-72
2023/01/30 10:19:27;;;;;;;23.52;12.93;;;7.80;68.00;;;;;;6218546;22;20039;-74
2023/01/30 10:22:26;;;;;;;21.10;11.70;;;7.90;68.00;;;;;;6245566;22;20000;-73
2023/01/30 10:25:05;;;;;;;21.35;13.38;;;8.00;67.20;;;;;;6218445;23;20012;-72
2023/01/30 10:27:32;;;;;;;20.23;12.07;;;8.20;67.40;;;;;;6244937;22;20054;-71
2023/01/30 10:30:02;;;;;;;19.27;11.63;;;8.30;64.70;;;;;;6245213;23;20004;-72
2023/01/30 10:33:12;;;;;;;21.95;11.35;;;8.40;64.50;;;;;;6245506;22;20012;-73
2023/01/30 10:35:41;;;;;;;21.27;12.27;;;8.40;64.50;;;;;;6152174;23;20018;-73
2023/01/30 10:38:18;;;;;;;17.95;11.90;;;8.50;64.70;;;;;;6152186;23;20096;-72
2023/01/30 10:41:45;;;;;;;18.58;11.70;;;8.60;64.10;;;;;;6208570;22;20016;-73
2023/01/30 10:44:13;;;;;;;19.50;12.48;;;8.70;64.60;;;;;;6134732;23;20092;-72
2023/01/30 10:47:13;;;;;;;18.17;11.25;;;8.80;63.80;;;;;;6152297;23;20013;-72
2023/01/30 10:49:48;;;;;;;17.88;11.07;;;8.80;64.20;;;;;;6218293;22;20408;-70
2023/01/30 10:52:46;;;;;;;19.17;11.45;;;9.00;63.80;;;;;;6244520;22;20040;-74
2023/01/30 10:55:14;;;;;;;17.60;10.80;;;8.90;63.10;;;;;;6244481;22;20043;-71
2023/01/30 10:57:56;;;;;;;17.35;10.75;;;9.00;63.20;;;;;;6244156;23;20079;-71
2023/01/30 11:00:46;;;;;;;18.88;12.00;;;9.00;62.70;;;;;;6244452;22;19997;-72
2023/01/30 11:03:21;;;;;;;18.50;12.23;;;9.10;62.60;;;;;;6244726;22;20000;-71
2023/01/30 11:05:53;;;;;;;19.67;11.85;;;9.00;62.50;;;;;;6218080;23;20469;-71
2023/01/30 11:08:24;;;;;;;20.00;11.27;;;9.10;62.50;;;;;;6218153;23;20434;-72
2023/01/30 11:10:52;;;;;;;19.48;11.43;;;9.20;62.40;;;;;;6245039;22;20008;-72
2023/01/30 11:13:26;;;;;;;21.92;12.35;;;9.30;62.60;;;;;;6244336;22;20477;-71
2023/01/30 11:15:54;;;;;;;17.55;12.20;;;9.30;62.20;;;;;;6244463;23;20003;-72
2023/01/30 11:18:22;;;;;;;21.05;12.13;;;9.40;62.20;;;;;;6244286;22;20087;-71
2023/01/30 11:21:20;;;;;;;20.10;11.27;;;9.50;61.90;;;;;;6244316;22;20023;-72
2023/01/30 11:23:46;;;;;;;19.73;11.52;;;9.50;61.40;;;;;;6245444;22;20027;-71
2023/01/30 11:26:34;;;;;;;19.55;12.23;;;9.50;61.40;;;;;;6218214;22;20395;-71
2023/01/30 11:29:24;;;;;;;18.98;13.07;;;9.70;61.90;;;;;;6217558;22;20024;-75
2023/01/30 11:31:51;;;;;;;17.52;11.90;;;9.80;61.70;;;;;;6245303;22;20337;-74
2023/01/30 11:34:19;;;;;;;19.00;11.95;;;9.80;60.90;;;;;;6245104;22;20050;-75
2023/01/30 11:36:46;;;;;;;19.15;11.68;;;9.90;61.00;;;;;;6245575;22;19996;-73
2023/01/30 11:39:12;;;;;;;19.20;12.23;;;9.90;60.50;;;;;;6245138;22;20015;-74
2023/01/30 11:41:42;;;;;;;20.73;12.52;;;9.90;60.40;;;;;;6244599;22;20074;-74
2023/01/30 11:44:10;;;;;;;20.70;12.82;;;10.10;59.80;;;;;;6244960;22;20015;-80
2023/01/30 11:46:38;;;;;;;18.85;12.60;;;10.20;60.00;;;;;;6217847;23;20083;-75
2023/01/30 11:49:20;;;;;;;18.83;12.02;;;10.30;59.20;;;;;;6244908;22;20014;-76
2023/01/30 11:51:51;;;;;;;20.67;12.18;;;10.30;59.10;;;;;;6244435;22;20016;-72
2023/01/30 11:54:22;;;;;;;20.55;11.27;;;10.30;58.60;;;;;;6244631;22;20021;-75
2023/01/30 11:56:52;;;;;;;17.17;11.63;;;10.30;58.70;;;;;;6218016;23;20012;-75
2023/01/30 11:59:26;;;;;;;17.33;11.60;;;10.30;58.80;;;;;;6244749;22;20452;-76
2023/01/30 12:02:20;;;;;;;18.77;11.95;;;10.40;59.10;;;;;;6245089;22;20084;-73
2023/01/30 12:04:52;;;;;;;18.70;11.35;;;10.40;59.00;;;;;;6244736;22;20035;-77
2023/01/30 12:07:24;;;;;;;16.40;11.10;;;10.50;58.00;;;;;;6246447;22;20334;-77
2023/01/30 12:09:52;;;;;;;16.92;11.60;;;10.50;57.90;;;;;;6246656;22;20000;-78
2023/01/30 12:12:44;;;;;;;18.55;10.30;;;10.60;57.80;;;;;;6248264;22;20072;-82
2023/01/30 12:15:21;;;;;;;15.05;10.07;;;10.70;57.90;;;;;;6245968;22;20004;-73
2023/01/30 12:18:20;;;;;;;14.45;9.20;;;10.70;56.90;;;;;;6244643;22;20027;-77
2023/01/30 12:20:59;;;;;;;15.45;9.88;;;10.80;57.50;;;;;;6216840;22;20469;-79
2023/01/30 12:23:39;;;;;;;14.45;9.80;;;10.90;56.40;;;;;;6244657;22;20050;-78
2023/01/30 12:26:29;;;;;;;12.32;8.43;;;10.90;55.70;;;;;;6245507;22;20004;-77
2023/01/30 12:29:01;;;;;;;11.30;6.93;;;11.00;56.00;;;;;;6247068;22;20035;-77
2023/01/30 12:31:34;;;;;;;11.98;7.13;;;10.90;54.90;;;;;;6246758;22;20083;-77
2023/01/30 12:34:01;;;;;;;13.18;8.07;;;10.80;54.50;;;;;;6246520;22;20345;-75
2023/01/30 12:36:27;;;;;;;14.10;8.18;;;10.80;54.60;;;;;;6246750;22;20326;-78
2023/01/30 12:39:17;;;;;;;12.20;8.55;;;10.90;54.90;;;;;;6247014;22;20001;-75
2023/01/30 12:42:13;;;;;;;13.93;8.43;;;10.80;55.30;;;;;;6246633;22;19996;-76
2023/01/30 12:44:48;;;;;;;11.35;7.13;;;10.90;55.70;;;;;;6247154;23;20050;-78
2023/01/30 12:47:16;;;;;;;13.02;7.53;;;10.90;55.30;;;;;;6249342;23;20004;-78
2023/01/30 12:50:06;;;;;;;12.95;8.00;;;11.00;54.50;;;;;;6265883;22;19996;-76
2023/01/30 12:52:50;;;;;;;12.30;8.45;;;11.10;55.20;;;;;;6266367;22;20023;-76
2023/01/30 12:55:29;;;;;;;12.60;8.55;;;11.20;55.30;;;;;;6267161;22;20002;-77
2023/01/30 12:58:37;;;;;;;13.57;8.73;;;11.30;54.20;;;;;;6250985;22;20008;-79
2023/01/30 13:01:16;;;;;;;12.60;8.80;;;11.30;55.20;;;;;;6239267;23;20389;-78
2023/01/30 13:04:22;;;;;;;12.70;8.07;;;11.40;55.20;;;;;;6247547;22;20011;-78
2023/01/30 13:07:05;;;;;;;14.60;8.88;;;11.50;54.70;;;;;;6196777;22;20074;-78
2023/01/30 13:09:56;;;;;;;14.65;8.38;;;11.60;54.60;;;;;;6247234;22;20040;-79
2023/01/30 13:12:27;;;;;;;11.68;7.45;;;11.70;54.40;;;;;;6246216;23;20051;-77
2023/01/30 13:15:04;;;;;;;12.23;7.35;;;11.70;54.30;;;;;;6248518;22;20003;-85
2023/01/30 13:17:56;;;;;;;12.63;7.57;;;11.70;54.10;;;;;;6247252;22;20000;-85
2023/01/30 13:20:58;;;;;;;12.00;7.38;;;11.70;54.10;;;;;;6246850;22;20002;-83
2023/01/30 13:23:54;;;;;;;13.85;7.50;;;11.80;54.00;;;;;;6170674;22;20016;-79
2023/01/30 13:26:25;;;;;;;11.50;6.97;;;11.90;54.90;;;;;;6246571;23;20333;-76
2023/01/30 13:29:04;;;;;;;10.77;6.63;;;12.00;53.50;;;;;;6246061;22;20043;-76
2023/01/30 13:31:35;;;;;;;9.82;6.15;;;12.00;52.90;;;;;;6246098;22;19996;-75
2023/01/30 13:34:06;;;;;;;9.07;5.20;;;12.00;52.70;;;;;;6245751;22;20014;-74
2023/01/30 13:36:38;;;;;;;7.20;4.78;;;12.10;51.50;;;;;;6245989;22;20004;-77
2023/01/30 13:39:18;;;;;;;8.05;5.22;;;12.00;51.40;;;;;;6245642;23;20008;-78
2023/01/30 13:41:51;;;;;;;13.48;6.13;;;12.00;51.30;;;;;;6246342;22;20079;-75
2023/01/30 13:44:30;;;;;;;9.02;4.85;;;11.90;51.60;;;;;;6246147;22;20041;-74
2023/01/30 13:47:03;;;;;;;10.40;5.28;;;12.00;51.00;;;;;;6194859;23;20015;-75
2023/01/30 13:50:01;;;;;;;8.02;5.38;;;12.10;50.70;;;;;;6244698;22;20429;-76
2023/01/30 13:52:49;;;;;;;8.90;5.47;;;12.10;50.30;;;;;;6246667;22;20086;-76